sensor_id;sensor_type;location;lat;lon;timestamp;temperature;humidity
35445;DHT22;21562;49.476;6.086;2022-10-16T00:01:16;16.90;99.90
35445;DHT22;21562;49.476;6.086;2022-10-16T00:03:43;16.60;99.90
35445;DHT22;21562;49.476;6.086;2022-10-16T00:06:10;16.80;99.90
35445;DHT22;21562;49.476;6.086;2022-10-16T00:08:37;16.90;99.90
35445;DHT22;21562;49.476;6.086;2022-10-16T00:11:06;16.60;99.90
35445;DHT22;21562;49.476;6.086;2022-10-16T00:13:33;16.20;99.90
35445;DHT22;21562;49.476;6.086;2022-10-16T00:16:00;16.20;99.90
35445;DHT22;21562;49.476;6.086;2022-10-16T00:18:27;16.10;99.90
35445;DHT22;21562;49.476;6.086;2022-10-16T00:20:53;16.10;99.90
35445;DHT22;21562;49.476;6.086;2022-10-16T00:23:20;15.90;99.90
35445;DHT22;21562;49.476;6.086;2022-10-16T00:25:58;15.60;99.90
35445;DHT22;21562;49.476;6.086;2022-10-16T00:28:24;15.60;99.90
35445;DHT22;21562;49.476;6.086;2022-10-16T00:30:50;15.80;99.90
35445;DHT22;21562;49.476;6.086;2022-10-16T00:33:16;15.60;99.90
35445;DHT22;21562;49.476;6.086;2022-10-16T00:35:41;15.60;99.90
35445;DHT22;21562;49.476;6.086;2022-10-16T00:38:07;15.40;99.90
35445;DHT22;21562;49.476;6.086;2022-10-16T00:40:33;15.40;99.90
35445;DHT22;21562;49.476;6.086;2022-10-16T00:42:59;15.50;99.90
35445;DHT22;21562;49.476;6.086;2022-10-16T00:45:24;15.50;99.90
35445;DHT22;21562;49.476;6.086;2022-10-16T00:47:52;15.70;99.90
35445;DHT22;21562;49.476;6.086;2022-10-16T00:50:33;16.00;99.90
35445;DHT22;21562;49.476;6.086;2022-10-16T00:53:00;16.10;99.90
35445;DHT22;21562;49.476;6.086;2022-10-16T00:55:27;16.40;99.90
35445;DHT22;21562;49.476;6.086;2022-10-16T00:57:56;16.20;99.90
35445;DHT22;21562;49.476;6.086;2022-10-16T01:00:24;16.10;99.90
35445;DHT22;21562;49.476;6.086;2022-10-16T01:02:57;16.10;99.90
35445;DHT22;21562;49.476;6.086;2022-10-16T01:05:25;15.80;99.90
35445;DHT22;21562;49.476;6.086;2022-10-16T01:08:12;15.90;99.90
35445;DHT22;21562;49.476;6.086;2022-10-16T01:10:48;16.10;99.90
35445;DHT22;21562;49.476;6.086;2022-10-16T01:13:29;16.00;99.90
35445;DHT22;21562;49.476;6.086;2022-10-16T01:18:46;16.30;99.90
35445;DHT22;21562;49.476;6.086;2022-10-16T01:29:49;16.10;99.90
35445;DHT22;21562;49.476;6.086;2022-10-16T01:35:21;15.90;99.90
35445;DHT22;21562;49.476;6.086;2022-10-16T01:40:24;16.60;99.90
35445;DHT22;21562;49.476;6.086;2022-10-16T01:42:59;16.40;99.90
35445;DHT22;21562;49.476;6.086;2022-10-16T01:45:28;15.90;99.90
35445;DHT22;21562;49.476;6.086;2022-10-16T01:47:55;15.70;99.90
35445;DHT22;21562;49.476;6.086;2022-10-16T01:50:21;16.00;99.90
35445;DHT22;21562;49.476;6.086;2022-10-16T01:52:50;16.20;99.90
35445;DHT22;21562;49.476;6.086;2022-10-16T01:55:25;16.40;99.90
35445;DHT22;21562;49.476;6.086;2022-10-16T01:57:55;16.50;99.90
35445;DHT22;21562;49.476;6.086;2022-10-16T02:00:22;16.70;99.90
35445;DHT22;21562;49.476;6.086;2022-10-16T02:02:50;16.90;99.90
35445;DHT22;21562;49.476;6.086;2022-10-16T02:05:32;17.00;99.90
35445;DHT22;21562;49.476;6.086;2022-10-16T02:07:59;17.00;99.90
35445;DHT22;21562;49.476;6.086;2022-10-16T02:10:25;16.80;99.90
35445;DHT22;21562;49.476;6.086;2022-10-16T02:13:23;16.90;99.90
35445;DHT22;21562;49.476;6.086;2022-10-16T02:15:51;17.10;99.90
35445;DHT22;21562;49.476;6.086;2022-10-16T02:18:17;17.10;99.90
35445;DHT22;21562;49.476;6.086;2022-10-16T02:20:53;17.20;99.90
35445;DHT22;21562;49.476;6.086;2022-10-16T02:23:41;17.20;99.90
35445;DHT22;21562;49.476;6.086;2022-10-16T02:26:14;17.30;99.90
35445;DHT22;21562;49.476;6.086;2022-10-16T02:28:50;17.30;99.90
35445;DHT22;21562;49.476;6.086;2022-10-16T02:31:21;17.30;99.90
35445;DHT22;21562;49.476;6.086;2022-10-16T02:33:51;17.40;99.90
35445;DHT22;21562;49.476;6.086;2022-10-16T02:36:18;17.40;99.90
35445;DHT22;21562;49.476;6.086;2022-10-16T02:38:44;17.40;99.90
35445;DHT22;21562;49.476;6.086;2022-10-16T02:41:10;17.40;99.90
35445;DHT22;21562;49.476;6.086;2022-10-16T02:43:35;17.50;99.90
35445;DHT22;21562;49.476;6.086;2022-10-16T02:46:01;17.40;99.90
35445;DHT22;21562;49.476;6.086;2022-10-16T02:48:26;17.30;99.90
35445;DHT22;21562;49.476;6.086;2022-10-16T02:50:52;17.20;99.90
35445;DHT22;21562;49.476;6.086;2022-10-16T02:53:18;17.10;99.90
35445;DHT22;21562;49.476;6.086;2022-10-16T02:55:43;17.00;99.90
35445;DHT22;21562;49.476;6.086;2022-10-16T02:58:09;17.00;99.90
35445;DHT22;21562;49.476;6.086;2022-10-16T03:00:34;17.10;99.90
35445;DHT22;21562;49.476;6.086;2022-10-16T03:03:00;17.20;99.90
35445;DHT22;21562;49.476;6.086;2022-10-16T03:05:26;17.30;99.90
35445;DHT22;21562;49.476;6.086;2022-10-16T03:07:51;17.40;99.90
35445;DHT22;21562;49.476;6.086;2022-10-16T03:10:18;17.30;99.90
35445;DHT22;21562;49.476;6.086;2022-10-16T03:12:43;17.20;99.90
35445;DHT22;21562;49.476;6.086;2022-10-16T03:15:09;17.30;99.90
35445;DHT22;21562;49.476;6.086;2022-10-16T03:17:35;17.40;99.90
35445;DHT22;21562;49.476;6.086;2022-10-16T03:20:01;17.50;99.90
35445;DHT22;21562;49.476;6.086;2022-10-16T03:22:26;17.40;99.90
35445;DHT22;21562;49.476;6.086;2022-10-16T03:24:52;17.50;99.90
35445;DHT22;21562;49.476;6.086;2022-10-16T03:27:18;17.50;99.90
35445;DHT22;21562;49.476;6.086;2022-10-16T03:29:43;17.40;99.90
35445;DHT22;21562;49.476;6.086;2022-10-16T03:32:09;17.50;99.90
35445;DHT22;21562;49.476;6.086;2022-10-16T03:34:34;17.60;99.90
35445;DHT22;21562;49.476;6.086;2022-10-16T03:37:00;17.70;99.90
35445;DHT22;21562;49.476;6.086;2022-10-16T03:39:26;17.80;99.90
35445;DHT22;21562;49.476;6.086;2022-10-16T03:41:52;17.70;99.90
35445;DHT22;21562;49.476;6.086;2022-10-16T03:44:18;17.80;99.90
35445;DHT22;21562;49.476;6.086;2022-10-16T03:46:43;17.80;99.90
35445;DHT22;21562;49.476;6.086;2022-10-16T03:49:09;17.80;99.90
35445;DHT22;21562;49.476;6.086;2022-10-16T03:51:35;17.80;99.90
35445;DHT22;21562;49.476;6.086;2022-10-16T03:54:00;17.70;99.90
35445;DHT22;21562;49.476;6.086;2022-10-16T03:56:26;17.70;99.90
35445;DHT22;21562;49.476;6.086;2022-10-16T03:58:52;17.70;99.90
35445;DHT22;21562;49.476;6.086;2022-10-16T04:01:17;17.70;99.90
35445;DHT22;21562;49.476;6.086;2022-10-16T04:03:43;17.60;99.90
35445;DHT22;21562;49.476;6.086;2022-10-16T04:06:08;17.70;99.90
35445;DHT22;21562;49.476;6.086;2022-10-16T04:08:34;17.70;99.90
35445;DHT22;21562;49.476;6.086;2022-10-16T04:11:02;17.70;99.90
35445;DHT22;21562;49.476;6.086;2022-10-16T04:13:28;17.70;99.90
35445;DHT22;21562;49.476;6.086;2022-10-16T04:15:53;17.80;99.90
35445;DHT22;21562;49.476;6.086;2022-10-16T04:18:19;17.80;99.90
35445;DHT22;21562;49.476;6.086;2022-10-16T04:20:45;17.70;99.90
35445;DHT22;21562;49.476;6.086;2022-10-16T04:23:10;17.70;99.90
35445;DHT22;21562;49.476;6.086;2022-10-16T04:25:36;17.60;99.90
35445;DHT22;21562;49.476;6.086;2022-10-16T04:28:02;17.60;99.90
35445;DHT22;21562;49.476;6.086;2022-10-16T04:30:27;17.40;99.90
35445;DHT22;21562;49.476;6.086;2022-10-16T04:32:53;17.30;99.90
35445;DHT22;21562;49.476;6.086;2022-10-16T04:35:20;17.00;99.90
35445;DHT22;21562;49.476;6.086;2022-10-16T04:37:46;17.00;99.90
35445;DHT22;21562;49.476;6.086;2022-10-16T04:40:13;16.70;99.90
35445;DHT22;21562;49.476;6.086;2022-10-16T04:42:39;16.10;99.90
35445;DHT22;21562;49.476;6.086;2022-10-16T04:45:05;16.30;99.90
35445;DHT22;21562;49.476;6.086;2022-10-16T04:47:31;16.60;99.90
35445;DHT22;21562;49.476;6.086;2022-10-16T04:49:57;16.80;99.90
35445;DHT22;21562;49.476;6.086;2022-10-16T04:52:22;17.00;99.90
35445;DHT22;21562;49.476;6.086;2022-10-16T04:54:50;17.10;99.90
35445;DHT22;21562;49.476;6.086;2022-10-16T04:57:16;17.30;99.90
35445;DHT22;21562;49.476;6.086;2022-10-16T04:59:42;17.10;99.90
35445;DHT22;21562;49.476;6.086;2022-10-16T05:02:07;17.10;99.90
35445;DHT22;21562;49.476;6.086;2022-10-16T05:04:33;17.10;99.90
35445;DHT22;21562;49.476;6.086;2022-10-16T05:06:58;17.20;99.90
35445;DHT22;21562;49.476;6.086;2022-10-16T05:09:24;17.20;99.90
35445;DHT22;21562;49.476;6.086;2022-10-16T05:11:50;17.30;99.90
35445;DHT22;21562;49.476;6.086;2022-10-16T05:14:15;17.40;99.90
35445;DHT22;21562;49.476;6.086;2022-10-16T05:16:41;17.50;99.90
35445;DHT22;21562;49.476;6.086;2022-10-16T05:19:07;17.60;99.90
35445;DHT22;21562;49.476;6.086;2022-10-16T05:21:32;17.70;99.90
35445;DHT22;21562;49.476;6.086;2022-10-16T05:23:58;17.70;99.90
35445;DHT22;21562;49.476;6.086;2022-10-16T05:26:24;17.80;99.90
35445;DHT22;21562;49.476;6.086;2022-10-16T05:28:50;17.80;99.90
35445;DHT22;21562;49.476;6.086;2022-10-16T05:31:15;17.80;99.90
35445;DHT22;21562;49.476;6.086;2022-10-16T05:33:41;17.80;99.90
35445;DHT22;21562;49.476;6.086;2022-10-16T05:36:08;17.50;99.90
35445;DHT22;21562;49.476;6.086;2022-10-16T05:38:35;17.50;99.90
35445;DHT22;21562;49.476;6.086;2022-10-16T05:41:01;17.60;99.90
35445;DHT22;21562;49.476;6.086;2022-10-16T05:43:28;17.70;99.90
35445;DHT22;21562;49.476;6.086;2022-10-16T05:46:05;17.70;99.90
35445;DHT22;21562;49.476;6.086;2022-10-16T05:48:31;17.50;99.90
35445;DHT22;21562;49.476;6.086;2022-10-16T05:50:59;17.60;99.90
35445;DHT22;21562;49.476;6.086;2022-10-16T05:53:26;17.70;99.90
35445;DHT22;21562;49.476;6.086;2022-10-16T05:55:52;17.80;99.90
35445;DHT22;21562;49.476;6.086;2022-10-16T05:58:18;17.70;99.90
35445;DHT22;21562;49.476;6.086;2022-10-16T06:00:44;17.60;99.90
35445;DHT22;21562;49.476;6.086;2022-10-16T06:03:09;17.60;99.90
35445;DHT22;21562;49.476;6.086;2022-10-16T06:05:35;17.60;99.90
35445;DHT22;21562;49.476;6.086;2022-10-16T06:08:00;17.70;99.90
35445;DHT22;21562;49.476;6.086;2022-10-16T06:10:26;17.60;99.90
35445;DHT22;21562;49.476;6.086;2022-10-16T06:12:52;17.70;99.90
35445;DHT22;21562;49.476;6.086;2022-10-16T06:15:17;17.70;99.90
35445;DHT22;21562;49.476;6.086;2022-10-16T06:17:43;17.90;99.90
35445;DHT22;21562;49.476;6.086;2022-10-16T06:20:09;18.00;99.90
35445;DHT22;21562;49.476;6.086;2022-10-16T06:22:34;18.00;99.90
35445;DHT22;21562;49.476;6.086;2022-10-16T06:25:00;18.00;99.90
35445;DHT22;21562;49.476;6.086;2022-10-16T06:27:26;18.00;99.90
35445;DHT22;21562;49.476;6.086;2022-10-16T06:29:51;17.80;99.90
35445;DHT22;21562;49.476;6.086;2022-10-16T06:32:17;17.70;99.90
35445;DHT22;21562;49.476;6.086;2022-10-16T06:34:42;17.80;99.90
35445;DHT22;21562;49.476;6.086;2022-10-16T06:37:08;17.90;99.90
35445;DHT22;21562;49.476;6.086;2022-10-16T06:39:34;18.10;99.90
35445;DHT22;21562;49.476;6.086;2022-10-16T06:41:59;18.10;99.90
35445;DHT22;21562;49.476;6.086;2022-10-16T06:44:25;17.80;99.90
35445;DHT22;21562;49.476;6.086;2022-10-16T06:46:50;17.60;99.90
35445;DHT22;21562;49.476;6.086;2022-10-16T06:49:16;17.50;99.90
35445;DHT22;21562;49.476;6.086;2022-10-16T06:51:46;17.10;99.90
35445;DHT22;21562;49.476;6.086;2022-10-16T06:54:12;17.20;99.90
35445;DHT22;21562;49.476;6.086;2022-10-16T06:56:38;17.40;99.90
35445;DHT22;21562;49.476;6.086;2022-10-16T06:59:03;17.50;99.90
35445;DHT22;21562;49.476;6.086;2022-10-16T07:01:29;17.40;99.90
35445;DHT22;21562;49.476;6.086;2022-10-16T07:03:55;17.50;99.90
35445;DHT22;21562;49.476;6.086;2022-10-16T07:06:23;17.60;99.90
35445;DHT22;21562;49.476;6.086;2022-10-16T07:08:49;17.70;99.90
35445;DHT22;21562;49.476;6.086;2022-10-16T07:11:17;17.70;99.90
35445;DHT22;21562;49.476;6.086;2022-10-16T07:13:44;17.60;99.90
35445;DHT22;21562;49.476;6.086;2022-10-16T07:16:16;17.50;99.90
35445;DHT22;21562;49.476;6.086;2022-10-16T07:18:43;17.50;99.90
35445;DHT22;21562;49.476;6.086;2022-10-16T07:21:16;17.30;99.90
35445;DHT22;21562;49.476;6.086;2022-10-16T07:23:42;17.00;99.90
35445;DHT22;21562;49.476;6.086;2022-10-16T07:26:09;16.90;99.90
35445;DHT22;21562;49.476;6.086;2022-10-16T07:28:34;16.80;99.90
35445;DHT22;21562;49.476;6.086;2022-10-16T07:31:06;16.80;99.90
35445;DHT22;21562;49.476;6.086;2022-10-16T07:33:33;16.90;99.90
35445;DHT22;21562;49.476;6.086;2022-10-16T07:35:59;17.10;99.90
35445;DHT22;21562;49.476;6.086;2022-10-16T07:38:25;17.30;99.90
35445;DHT22;21562;49.476;6.086;2022-10-16T07:41:01;17.60;99.90
35445;DHT22;21562;49.476;6.086;2022-10-16T07:43:27;17.80;99.90
35445;DHT22;21562;49.476;6.086;2022-10-16T07:45:53;17.90;99.90
35445;DHT22;21562;49.476;6.086;2022-10-16T07:48:20;18.00;99.90
35445;DHT22;21562;49.476;6.086;2022-10-16T07:50:46;18.10;99.90
35445;DHT22;21562;49.476;6.086;2022-10-16T07:53:12;18.10;99.90
35445;DHT22;21562;49.476;6.086;2022-10-16T07:55:38;18.20;99.90
35445;DHT22;21562;49.476;6.086;2022-10-16T07:58:03;18.20;99.90
35445;DHT22;21562;49.476;6.086;2022-10-16T08:00:29;18.30;99.90
35445;DHT22;21562;49.476;6.086;2022-10-16T08:02:57;18.40;99.90
35445;DHT22;21562;49.476;6.086;2022-10-16T08:05:26;18.40;99.90
35445;DHT22;21562;49.476;6.086;2022-10-16T08:07:52;18.40;99.90
35445;DHT22;21562;49.476;6.086;2022-10-16T08:10:20;18.30;99.90
35445;DHT22;21562;49.476;6.086;2022-10-16T08:12:46;18.10;99.90
35445;DHT22;21562;49.476;6.086;2022-10-16T08:15:11;18.00;99.90
35445;DHT22;21562;49.476;6.086;2022-10-16T08:17:37;17.70;99.90
35445;DHT22;21562;49.476;6.086;2022-10-16T08:20:04;17.50;99.90
35445;DHT22;21562;49.476;6.086;2022-10-16T08:22:30;17.40;99.90
35445;DHT22;21562;49.476;6.086;2022-10-16T08:24:55;17.50;99.90
35445;DHT22;21562;49.476;6.086;2022-10-16T08:27:21;17.70;99.90
35445;DHT22;21562;49.476;6.086;2022-10-16T08:29:48;18.00;99.90
35445;DHT22;21562;49.476;6.086;2022-10-16T08:32:14;18.00;99.90
35445;DHT22;21562;49.476;6.086;2022-10-16T08:34:40;18.00;99.90
35445;DHT22;21562;49.476;6.086;2022-10-16T08:37:06;17.90;99.90
35445;DHT22;21562;49.476;6.086;2022-10-16T08:39:33;17.80;99.90
35445;DHT22;21562;49.476;6.086;2022-10-16T08:50:21;18.10;99.90
35445;DHT22;21562;49.476;6.086;2022-10-16T08:52:48;18.20;99.90
35445;DHT22;21562;49.476;6.086;2022-10-16T08:57:55;18.30;99.90
35445;DHT22;21562;49.476;6.086;2022-10-16T09:00:21;18.50;99.90
35445;DHT22;21562;49.476;6.086;2022-10-16T09:17:00;18.70;99.90
35445;DHT22;21562;49.476;6.086;2022-10-16T09:19:36;18.70;99.90
35445;DHT22;21562;49.476;6.086;2022-10-16T09:22:12;18.60;99.90
35445;DHT22;21562;49.476;6.086;2022-10-16T09:24:39;18.70;99.90
35445;DHT22;21562;49.476;6.086;2022-10-16T09:27:11;18.90;99.90
35445;DHT22;21562;49.476;6.086;2022-10-16T09:29:37;18.90;99.90
35445;DHT22;21562;49.476;6.086;2022-10-16T09:32:22;19.00;99.90
35445;DHT22;21562;49.476;6.086;2022-10-16T09:34:52;19.00;99.90
35445;DHT22;21562;49.476;6.086;2022-10-16T09:37:19;18.90;99.90
35445;DHT22;21562;49.476;6.086;2022-10-16T09:39:50;19.00;99.90
35445;DHT22;21562;49.476;6.086;2022-10-16T09:42:21;19.10;99.90
35445;DHT22;21562;49.476;6.086;2022-10-16T09:44:49;19.10;99.90
35445;DHT22;21562;49.476;6.086;2022-10-16T09:50:29;18.70;99.90
35445;DHT22;21562;49.476;6.086;2022-10-16T09:53:12;18.70;99.90
35445;DHT22;21562;49.476;6.086;2022-10-16T09:55:51;18.50;99.90
35445;DHT22;21562;49.476;6.086;2022-10-16T09:58:18;18.40;99.90
35445;DHT22;21562;49.476;6.086;2022-10-16T10:00:51;18.60;99.90
35445;DHT22;21562;49.476;6.086;2022-10-16T10:03:40;18.70;99.90
35445;DHT22;21562;49.476;6.086;2022-10-16T10:06:31;18.70;99.90
35445;DHT22;21562;49.476;6.086;2022-10-16T10:08:58;18.60;99.90
35445;DHT22;21562;49.476;6.086;2022-10-16T10:14:36;18.90;99.90
35445;DHT22;21562;49.476;6.086;2022-10-16T10:22:24;18.90;99.90
35445;DHT22;21562;49.476;6.086;2022-10-16T10:41:12;18.70;99.90
35445;DHT22;21562;49.476;6.086;2022-10-16T10:44:19;18.60;99.90
35445;DHT22;21562;49.476;6.086;2022-10-16T10:55:15;18.40;99.90
35445;DHT22;21562;49.476;6.086;2022-10-16T10:58:06;18.50;99.90
35445;DHT22;21562;49.476;6.086;2022-10-16T11:03:20;18.40;99.90
35445;DHT22;21562;49.476;6.086;2022-10-16T11:06:06;18.40;99.90
35445;DHT22;21562;49.476;6.086;2022-10-16T11:08:50;18.40;99.90
35445;DHT22;21562;49.476;6.086;2022-10-16T11:11:45;18.60;99.90
35445;DHT22;21562;49.476;6.086;2022-10-16T11:17:08;18.60;99.90
35445;DHT22;21562;49.476;6.086;2022-10-16T11:19:55;18.50;99.90
35445;DHT22;21562;49.476;6.086;2022-10-16T11:22:39;18.50;99.90
35445;DHT22;21562;49.476;6.086;2022-10-16T11:25:18;18.70;99.90
35445;DHT22;21562;49.476;6.086;2022-10-16T11:28:14;18.90;99.90
35445;DHT22;21562;49.476;6.086;2022-10-16T11:30:55;19.20;99.90
35445;DHT22;21562;49.476;6.086;2022-10-16T11:33:43;19.50;99.90
35445;DHT22;21562;49.476;6.086;2022-10-16T11:38:58;20.00;99.90
35445;DHT22;21562;49.476;6.086;2022-10-16T11:49:38;21.00;99.90
35445;DHT22;21562;49.476;6.086;2022-10-16T11:52:11;21.20;99.90
35445;DHT22;21562;49.476;6.086;2022-10-16T11:54:54;21.20;99.90
35445;DHT22;21562;49.476;6.086;2022-10-16T11:57:25;21.10;99.90
35445;DHT22;21562;49.476;6.086;2022-10-16T12:00:05;21.10;99.90
35445;DHT22;21562;49.476;6.086;2022-10-16T12:05:22;20.80;99.90
35445;DHT22;21562;49.476;6.086;2022-10-16T12:10:28;20.70;99.90
35445;DHT22;21562;49.476;6.086;2022-10-16T12:12:54;20.80;99.90
35445;DHT22;21562;49.476;6.086;2022-10-16T12:15:29;20.80;99.90
35445;DHT22;21562;49.476;6.086;2022-10-16T12:17:56;20.90;99.90
35445;DHT22;21562;49.476;6.086;2022-10-16T12:20:24;21.00;99.90
35445;DHT22;21562;49.476;6.086;2022-10-16T12:22:56;20.90;99.90
35445;DHT22;21562;49.476;6.086;2022-10-16T12:25:27;20.90;99.90
35445;DHT22;21562;49.476;6.086;2022-10-16T12:30:28;20.70;99.90
35445;DHT22;21562;49.476;6.086;2022-10-16T12:33:01;20.40;99.90
35445;DHT22;21562;49.476;6.086;2022-10-16T12:35:35;20.10;99.90
35445;DHT22;21562;49.476;6.086;2022-10-16T12:38:20;20.00;99.90
35445;DHT22;21562;49.476;6.086;2022-10-16T12:40:58;19.90;99.90
35445;DHT22;21562;49.476;6.086;2022-10-16T12:43:27;20.00;99.90
35445;DHT22;21562;49.476;6.086;2022-10-16T12:48:35;19.90;99.90
35445;DHT22;21562;49.476;6.086;2022-10-16T12:54:11;19.90;99.90
35445;DHT22;21562;49.476;6.086;2022-10-16T12:59:45;19.90;99.90
35445;DHT22;21562;49.476;6.086;2022-10-16T13:14:01;19.80;99.90
35445;DHT22;21562;49.476;6.086;2022-10-16T13:17:19;19.80;99.90
35445;DHT22;21562;49.476;6.086;2022-10-16T13:27:18;20.20;99.90
35445;DHT22;21562;49.476;6.086;2022-10-16T13:29:52;20.10;99.90
35445;DHT22;21562;49.476;6.086;2022-10-16T13:32:21;20.00;99.90
35445;DHT22;21562;49.476;6.086;2022-10-16T13:34:48;19.70;99.90
35445;DHT22;21562;49.476;6.086;2022-10-16T13:37:19;19.80;99.90
35445;DHT22;21562;49.476;6.086;2022-10-16T13:39:45;19.70;99.90
35445;DHT22;21562;49.476;6.086;2022-10-16T13:42:13;19.50;99.90
35445;DHT22;21562;49.476;6.086;2022-10-16T13:44:51;19.50;99.90
35445;DHT22;21562;49.476;6.086;2022-10-16T13:47:23;19.60;99.90
35445;DHT22;21562;49.476;6.086;2022-10-16T13:50:14;19.60;99.90
35445;DHT22;21562;49.476;6.086;2022-10-16T13:52:40;19.80;99.90
35445;DHT22;21562;49.476;6.086;2022-10-16T13:55:14;20.00;99.90
35445;DHT22;21562;49.476;6.086;2022-10-16T13:57:40;20.00;99.90
35445;DHT22;21562;49.476;6.086;2022-10-16T14:00:24;19.90;99.90
35445;DHT22;21562;49.476;6.086;2022-10-16T14:02:59;20.00;99.90
35445;DHT22;21562;49.476;6.086;2022-10-16T14:05:26;19.90;99.90
35445;DHT22;21562;49.476;6.086;2022-10-16T14:07:53;20.00;99.90
35445;DHT22;21562;49.476;6.086;2022-10-16T14:10:29;20.00;99.90
35445;DHT22;21562;49.476;6.086;2022-10-16T14:13:04;20.10;99.90
35445;DHT22;21562;49.476;6.086;2022-10-16T14:15:31;20.10;99.90
35445;DHT22;21562;49.476;6.086;2022-10-16T14:17:58;20.10;99.90
35445;DHT22;21562;49.476;6.086;2022-10-16T14:20:29;20.10;99.90
35445;DHT22;21562;49.476;6.086;2022-10-16T14:25:44;20.10;99.90
35445;DHT22;21562;49.476;6.086;2022-10-16T14:30:53;20.10;99.90
35445;DHT22;21562;49.476;6.086;2022-10-16T14:33:32;20.00;99.90
35445;DHT22;21562;49.476;6.086;2022-10-16T14:38:32;20.30;99.90
35445;DHT22;21562;49.476;6.086;2022-10-16T14:40:59;20.30;99.90
35445;DHT22;21562;49.476;6.086;2022-10-16T14:43:39;20.50;99.90
35445;DHT22;21562;49.476;6.086;2022-10-16T14:46:15;20.50;99.90
35445;DHT22;21562;49.476;6.086;2022-10-16T14:48:43;20.50;99.90
35445;DHT22;21562;49.476;6.086;2022-10-16T14:51:15;20.40;99.90
35445;DHT22;21562;49.476;6.086;2022-10-16T14:53:41;20.60;99.90
35445;DHT22;21562;49.476;6.086;2022-10-16T14:56:09;20.50;99.90
35445;DHT22;21562;49.476;6.086;2022-10-16T14:58:40;20.50;99.90
35445;DHT22;21562;49.476;6.086;2022-10-16T15:01:07;20.50;99.90
35445;DHT22;21562;49.476;6.086;2022-10-16T15:03:33;20.60;99.90
35445;DHT22;21562;49.476;6.086;2022-10-16T15:05:59;20.60;99.90
35445;DHT22;21562;49.476;6.086;2022-10-16T15:08:25;20.70;99.90
35445;DHT22;21562;49.476;6.086;2022-10-16T15:10:51;21.10;99.90
35445;DHT22;21562;49.476;6.086;2022-10-16T15:13:17;21.50;99.90
35445;DHT22;21562;49.476;6.086;2022-10-16T15:15:46;22.00;99.90
35445;DHT22;21562;49.476;6.086;2022-10-16T15:18:12;22.40;99.90
35445;DHT22;21562;49.476;6.086;2022-10-16T15:20:40;22.60;99.90
35445;DHT22;21562;49.476;6.086;2022-10-16T15:23:13;22.80;99.90
35445;DHT22;21562;49.476;6.086;2022-10-16T15:25:51;22.90;99.90
35445;DHT22;21562;49.476;6.086;2022-10-16T15:28:17;23.20;99.90
35445;DHT22;21562;49.476;6.086;2022-10-16T15:30:44;23.30;99.90
35445;DHT22;21562;49.476;6.086;2022-10-16T15:33:15;23.40;99.90
35445;DHT22;21562;49.476;6.086;2022-10-16T15:35:42;23.10;99.90
35445;DHT22;21562;49.476;6.086;2022-10-16T15:38:12;23.00;99.90
35445;DHT22;21562;49.476;6.086;2022-10-16T15:40:38;22.90;99.90
35445;DHT22;21562;49.476;6.086;2022-10-16T15:43:04;22.80;99.90
35445;DHT22;21562;49.476;6.086;2022-10-16T15:45:29;22.70;99.90
35445;DHT22;21562;49.476;6.086;2022-10-16T15:47:55;22.60;99.90
35445;DHT22;21562;49.476;6.086;2022-10-16T15:50:21;22.60;99.90
35445;DHT22;21562;49.476;6.086;2022-10-16T15:52:46;22.60;99.90
35445;DHT22;21562;49.476;6.086;2022-10-16T15:55:13;22.60;99.90
35445;DHT22;21562;49.476;6.086;2022-10-16T15:57:39;22.40;99.90
35445;DHT22;21562;49.476;6.086;2022-10-16T16:00:09;22.40;99.90
35445;DHT22;21562;49.476;6.086;2022-10-16T16:02:35;22.50;99.90
35445;DHT22;21562;49.476;6.086;2022-10-16T16:05:00;22.40;99.90
35445;DHT22;21562;49.476;6.086;2022-10-16T16:07:27;22.40;99.90
35445;DHT22;21562;49.476;6.086;2022-10-16T16:09:53;22.50;99.90
35445;DHT22;21562;49.476;6.086;2022-10-16T16:12:18;22.40;99.90
35445;DHT22;21562;49.476;6.086;2022-10-16T16:14:44;22.40;99.90
35445;DHT22;21562;49.476;6.086;2022-10-16T16:17:11;22.30;99.90
35445;DHT22;21562;49.476;6.086;2022-10-16T16:19:37;22.20;99.90
35445;DHT22;21562;49.476;6.086;2022-10-16T16:22:02;22.20;99.90
35445;DHT22;21562;49.476;6.086;2022-10-16T16:24:28;22.20;99.90
35445;DHT22;21562;49.476;6.086;2022-10-16T16:26:54;22.10;99.90
35445;DHT22;21562;49.476;6.086;2022-10-16T16:29:19;21.90;99.90
35445;DHT22;21562;49.476;6.086;2022-10-16T16:31:45;21.90;99.90
35445;DHT22;21562;49.476;6.086;2022-10-16T16:34:13;21.70;99.90
35445;DHT22;21562;49.476;6.086;2022-10-16T16:36:38;21.60;99.90
35445;DHT22;21562;49.476;6.086;2022-10-16T16:39:05;21.50;99.90
35445;DHT22;21562;49.476;6.086;2022-10-16T16:41:31;21.40;99.90
35445;DHT22;21562;49.476;6.086;2022-10-16T16:44:03;21.30;99.90
35445;DHT22;21562;49.476;6.086;2022-10-16T16:46:28;21.30;99.90
35445;DHT22;21562;49.476;6.086;2022-10-16T16:48:54;21.30;99.90
35445;DHT22;21562;49.476;6.086;2022-10-16T16:51:21;20.90;99.90
35445;DHT22;21562;49.476;6.086;2022-10-16T16:53:49;20.80;99.90
35445;DHT22;21562;49.476;6.086;2022-10-16T16:56:16;20.80;99.90
35445;DHT22;21562;49.476;6.086;2022-10-16T16:58:45;20.40;99.90
35445;DHT22;21562;49.476;6.086;2022-10-16T17:01:10;20.50;99.90
35445;DHT22;21562;49.476;6.086;2022-10-16T17:03:36;20.60;99.90
35445;DHT22;21562;49.476;6.086;2022-10-16T17:06:04;20.60;99.90
35445;DHT22;21562;49.476;6.086;2022-10-16T17:08:30;20.60;99.90
35445;DHT22;21562;49.476;6.086;2022-10-16T17:10:57;20.70;99.90
35445;DHT22;21562;49.476;6.086;2022-10-16T17:13:24;20.80;99.90
35445;DHT22;21562;49.476;6.086;2022-10-16T17:15:50;20.90;99.90
35445;DHT22;21562;49.476;6.086;2022-10-16T17:18:16;20.90;99.90
35445;DHT22;21562;49.476;6.086;2022-10-16T17:20:43;20.90;99.90
35445;DHT22;21562;49.476;6.086;2022-10-16T17:23:09;20.80;99.90
35445;DHT22;21562;49.476;6.086;2022-10-16T17:25:37;20.80;99.90
35445;DHT22;21562;49.476;6.086;2022-10-16T17:28:03;20.90;99.90
35445;DHT22;21562;49.476;6.086;2022-10-16T17:30:28;20.80;99.90
35445;DHT22;21562;49.476;6.086;2022-10-16T17:32:54;20.80;99.90
35445;DHT22;21562;49.476;6.086;2022-10-16T17:35:19;20.70;99.90
35445;DHT22;21562;49.476;6.086;2022-10-16T17:37:45;19.80;99.90
35445;DHT22;21562;49.476;6.086;2022-10-16T17:40:11;19.80;99.90
35445;DHT22;21562;49.476;6.086;2022-10-16T17:42:37;19.70;99.90
35445;DHT22;21562;49.476;6.086;2022-10-16T17:45:02;19.50;99.90
35445;DHT22;21562;49.476;6.086;2022-10-16T17:47:28;19.20;99.90
35445;DHT22;21562;49.476;6.086;2022-10-16T17:49:54;19.40;99.90
35445;DHT22;21562;49.476;6.086;2022-10-16T17:52:21;19.20;99.90
35445;DHT22;21562;49.476;6.086;2022-10-16T17:54:49;19.30;99.90
35445;DHT22;21562;49.476;6.086;2022-10-16T17:57:15;19.40;99.90
35445;DHT22;21562;49.476;6.086;2022-10-16T17:59:41;19.40;99.90